createdAt,value
2022-12-23T00:02:02.806Z,13.90
2022-12-23T00:06:12.780Z,10.50
2022-12-23T00:10:14.351Z,15.40
2022-12-23T00:14:34.547Z,11.32
2022-12-23T00:18:36.706Z,10.38
2022-12-23T00:22:56.880Z,11.10
2022-12-23T00:26:58.427Z,10.43
2022-12-23T00:31:05.640Z,9.27
2022-12-23T00:35:07.458Z,9.82
2022-12-23T00:39:31.046Z,9.85
2022-12-23T00:43:32.552Z,8.82
2022-12-23T00:47:52.888Z,9.68
2022-12-23T00:51:54.424Z,9.63
2022-12-23T00:55:55.973Z,9.27
2022-12-23T00:59:57.572Z,7.53
2022-12-23T01:04:17.637Z,8.25
2022-12-23T01:08:19.153Z,8.90
2022-12-23T01:12:20.844Z,10.27
2022-12-23T01:16:22.411Z,7.43
2022-12-23T01:20:24.851Z,8.75
2022-12-23T01:24:30.477Z,8.70
2022-12-23T01:28:32.430Z,10.43
2022-12-23T01:32:34.419Z,9.05
2022-12-23T01:36:36.433Z,9.68
2022-12-23T01:40:41.136Z,8.88
2022-12-23T01:44:56.072Z,9.40
2022-12-23T01:48:57.697Z,9.45
2022-12-23T01:53:08.736Z,7.15
2022-12-23T01:57:11.061Z,8.68
2022-12-23T02:01:31.964Z,7.38
2022-12-23T02:05:34.922Z,8.13
2022-12-23T02:09:39.877Z,7.50
2022-12-23T02:14:15.413Z,7.28
2022-12-23T02:18:41.852Z,7.95
2022-12-23T02:23:04.399Z,6.32
2022-12-23T02:27:13.533Z,8.40
2022-12-23T02:31:31.964Z,6.45
2022-12-23T02:35:44.945Z,6.38
2022-12-23T02:39:54.208Z,7.10
2022-12-23T02:44:18.620Z,6.80
2022-12-23T02:48:35.887Z,7.50
2022-12-23T02:52:41.213Z,8.80
2022-12-23T02:56:47.342Z,5.90
2022-12-23T03:00:49.782Z,6.53
2022-12-23T03:04:51.748Z,6.47
2022-12-23T03:08:57.514Z,6.68
2022-12-23T03:13:12.671Z,7.25
2022-12-23T03:17:25.516Z,8.65
2022-12-23T03:21:37.414Z,7.40
2022-12-23T03:25:42.180Z,5.07
2022-12-23T03:29:57.660Z,5.68
2022-12-23T03:34:14.254Z,7.35
2022-12-23T03:38:18.321Z,8.35
2022-12-23T03:42:28.527Z,6.47
2022-12-23T03:46:53.077Z,6.55
2022-12-23T03:50:59.783Z,5.72
2022-12-23T03:55:06.099Z,7.75
2022-12-23T03:59:17.747Z,9.45
2022-12-23T04:03:31.318Z,8.90
2022-12-23T04:07:39.631Z,6.90
2022-12-23T04:11:41.818Z,7.57
2022-12-23T04:15:43.592Z,7.60
2022-12-23T04:19:46.433Z,5.45
2022-12-23T04:23:47.881Z,8.45
2022-12-23T04:27:49.427Z,5.15
2022-12-23T04:31:50.912Z,5.63
2022-12-23T04:35:52.431Z,6.93
2022-12-23T04:39:53.916Z,5.45
2022-12-23T04:43:55.538Z,4.82
2022-12-23T04:47:57.550Z,5.72
2022-12-23T04:51:59.238Z,4.80
2022-12-23T04:56:00.917Z,4.40
2022-12-23T05:00:03.989Z,4.38
2022-12-23T05:04:05.447Z,6.55
2022-12-23T05:08:06.917Z,5.47
2022-12-23T05:12:08.650Z,3.50
2022-12-23T05:16:10.169Z,2.50
2022-12-23T05:20:11.812Z,1.48
2022-12-23T05:24:13.404Z,1.25
2022-12-23T05:28:15.045Z,2.15
2022-12-23T05:32:16.510Z,0.65
2022-12-23T05:36:18.043Z,1.92
2022-12-23T05:40:23.723Z,1.70
2022-12-23T05:44:30.396Z,1.58
2022-12-23T05:48:31.901Z,1.73
2022-12-23T05:52:33.391Z,1.40
2022-12-23T05:56:34.823Z,1.30
2022-12-23T06:00:36.331Z,1.13
2022-12-23T06:04:37.880Z,1.98
2022-12-23T06:08:39.508Z,0.93
2022-12-23T06:12:41.196Z,1.75
2022-12-23T06:16:42.796Z,1.45
2022-12-23T06:20:47.768Z,0.82
2022-12-23T06:24:49.900Z,1.02
2022-12-23T06:28:51.551Z,0.98
2022-12-23T06:32:53.088Z,1.77
2022-12-23T06:36:54.760Z,2.50
2022-12-23T06:40:56.474Z,1.55
2022-12-23T06:44:57.945Z,0.88
2022-12-23T06:48:59.434Z,1.85
2022-12-23T06:53:00.976Z,2.60
2022-12-23T06:57:02.728Z,0.93
2022-12-23T07:01:04.561Z,2.28
2022-12-23T07:05:06.355Z,1.50
2022-12-23T07:09:07.844Z,2.95
2022-12-23T07:13:09.780Z,1.90
2022-12-23T07:17:11.486Z,1.77
2022-12-23T07:21:21.210Z,3.03
2022-12-23T07:25:28.293Z,3.35
2022-12-23T07:29:29.957Z,2.53
2022-12-23T07:33:31.470Z,2.08
2022-12-23T07:37:33.133Z,2.60
2022-12-23T07:41:34.666Z,2.45
2022-12-23T07:45:41.122Z,2.10
2022-12-23T07:49:42.647Z,2.17
2022-12-23T07:53:47.725Z,1.60
2022-12-23T07:57:50.348Z,1.83
2022-12-23T08:01:52.126Z,2.67
2022-12-23T08:06:01.579Z,2.65
2022-12-23T08:10:04.198Z,1.95
2022-12-23T08:14:06.286Z,2.67
2022-12-23T08:18:07.798Z,2.58
2022-12-23T08:22:09.329Z,3.47
2022-12-23T08:26:16.852Z,3.03
2022-12-23T08:30:18.478Z,2.33
2022-12-23T08:34:19.984Z,1.92
2022-12-23T08:38:21.604Z,2.33
2022-12-23T08:42:23.228Z,2.50
2022-12-23T08:46:25.929Z,1.75
2022-12-23T08:50:27.645Z,2.42
2022-12-23T08:54:29.442Z,3.00
2022-12-23T08:58:31.603Z,2.00
2022-12-23T09:02:34.990Z,1.52
2022-12-23T09:06:40.690Z,2.13
2022-12-23T09:10:43.585Z,2.90
2022-12-23T09:14:47.623Z,1.50
2022-12-23T09:18:49.236Z,2.35
2022-12-23T09:22:50.991Z,2.25
2022-12-23T09:26:52.456Z,2.22
2022-12-23T09:30:54.042Z,1.65
2022-12-23T09:34:55.618Z,1.38
2022-12-23T09:38:58.058Z,1.83
2022-12-23T09:43:20.908Z,2.17
2022-12-23T09:47:26.509Z,2.10
2022-12-23T09:51:30.587Z,1.88
2022-12-23T09:55:47.074Z,2.15
2022-12-23T10:00:03.204Z,6.57
2022-12-23T10:04:19.407Z,2.15
2022-12-23T10:08:44.994Z,1.77
2022-12-23T10:12:49.897Z,1.65
2022-12-23T10:16:58.830Z,1.65
2022-12-23T10:21:06.117Z,1.88
2022-12-23T10:25:15.577Z,1.85
2022-12-23T10:29:20.155Z,1.90
2022-12-23T10:33:24.326Z,1.83
2022-12-23T10:37:43.813Z,2.30
2022-12-23T10:42:01.699Z,2.42
2022-12-23T10:46:25.574Z,3.72
2022-12-23T10:50:36.294Z,1.75
2022-12-23T10:54:41.560Z,4.80
2022-12-23T10:58:48.260Z,3.05
2022-12-23T11:03:07.968Z,1.83
2022-12-23T11:11:52.578Z,3.58
2022-12-23T11:16:10.862Z,2.83
2022-12-23T11:20:20.140Z,2.20
2022-12-23T11:24:22.681Z,2.55
2022-12-23T11:28:24.419Z,2.95
2022-12-23T11:32:28.094Z,2.45
2022-12-23T11:36:31.273Z,2.47
2022-12-23T11:40:38.572Z,3.38
2022-12-23T11:44:44.110Z,2.78
2022-12-23T11:48:50.062Z,2.28
2022-12-23T11:53:04.509Z,2.05
2022-12-23T11:57:14.951Z,2.78
2022-12-23T12:01:20.349Z,3.25
2022-12-23T12:05:40.483Z,2.47
2022-12-23T12:09:45.601Z,2.53
2022-12-23T12:13:56.618Z,2.25
2022-12-23T12:17:59.010Z,2.85
2022-12-23T12:22:06.849Z,2.38
2022-12-23T12:26:20.200Z,2.88
2022-12-23T12:30:22.418Z,2.40
2022-12-23T12:34:34.142Z,3.97
2022-12-23T12:38:39.196Z,2.83
2022-12-23T12:42:43.398Z,2.88
2022-12-23T12:46:49.777Z,2.45
2022-12-23T12:51:24.899Z,3.13
2022-12-23T12:55:31.680Z,3.22
2022-12-23T12:59:39.070Z,2.70
2022-12-23T13:03:55.785Z,2.55
2022-12-23T13:07:57.435Z,3.08
2022-12-23T13:12:14.884Z,2.13
2022-12-23T13:16:25.070Z,2.75
2022-12-23T13:20:38.533Z,2.40
2022-12-23T13:24:43.761Z,1.95
2022-12-23T13:29:06.193Z,2.63
2022-12-23T13:33:07.896Z,2.42
2022-12-23T13:37:50.223Z,3.60
2022-12-23T13:41:59.890Z,3.20
2022-12-23T13:46:30.623Z,2.28
2022-12-23T13:50:43.616Z,3.05
2022-12-23T13:54:48.495Z,2.70
2022-12-23T13:58:51.321Z,3.47
2022-12-23T14:03:06.973Z,3.80
2022-12-23T14:07:21.516Z,3.30
2022-12-23T14:11:28.429Z,2.83
2022-12-23T14:15:51.232Z,3.17
2022-12-23T14:20:01.957Z,2.58
2022-12-23T14:24:31.580Z,2.63
2022-12-23T14:28:56.562Z,2.47
2022-12-23T14:33:00.459Z,2.60
2022-12-23T14:37:20.486Z,2.92
2022-12-23T14:41:39.723Z,3.25
2022-12-23T14:45:44.852Z,3.63
2022-12-23T14:49:46.675Z,4.65
2022-12-23T14:53:56.614Z,12.23
2022-12-23T14:58:17.024Z,7.05
2022-12-23T15:02:30.899Z,8.70
2022-12-23T15:06:37.003Z,5.80
2022-12-23T15:10:38.707Z,9.23
2022-12-23T15:14:54.300Z,4.70
2022-12-23T15:18:57.867Z,7.72
2022-12-23T15:23:14.234Z,9.18
2022-12-23T15:27:29.423Z,8.13
2022-12-23T15:31:35.255Z,5.05
2022-12-23T15:35:39.903Z,7.35
2022-12-23T15:39:44.858Z,7.15
2022-12-23T15:43:46.520Z,5.78
2022-12-23T15:47:48.231Z,5.93
2022-12-23T15:52:08.021Z,5.10
2022-12-23T15:56:23.537Z,4.55
2022-12-23T16:00:30.985Z,4.40
2022-12-23T16:04:32.603Z,5.35
2022-12-23T16:08:34.322Z,6.30
2022-12-23T16:12:36.473Z,5.45
2022-12-23T16:16:39.914Z,5.88
2022-12-23T16:20:45.117Z,6.65
2022-12-23T16:24:48.608Z,7.25
2022-12-23T16:28:53.436Z,6.47
2022-12-23T16:32:58.087Z,6.88
2022-12-23T16:36:59.596Z,5.80
2022-12-23T16:41:01.204Z,6.85
2022-12-23T16:45:02.815Z,8.32
2022-12-23T16:49:06.612Z,7.03
2022-12-23T16:53:14.131Z,7.35
2022-12-23T16:57:15.663Z,6.32
2022-12-23T17:01:24.701Z,7.20
2022-12-23T17:05:26.338Z,7.78
2022-12-23T17:09:27.846Z,6.47
2022-12-23T17:13:29.443Z,7.03
2022-12-23T17:17:31.055Z,10.40
2022-12-23T17:21:36.730Z,10.40
2022-12-23T17:25:38.751Z,8.60
2022-12-23T17:29:40.611Z,9.77
2022-12-23T17:33:42.238Z,8.07
2022-12-23T17:37:43.929Z,7.93
2022-12-23T17:41:46.096Z,8.45
2022-12-23T17:45:47.662Z,9.27
2022-12-23T17:49:50.226Z,7.88
2022-12-23T17:53:57.672Z,9.13
2022-12-23T17:57:59.731Z,9.27
2022-12-23T18:02:03.146Z,8.93
2022-12-23T18:06:09.479Z,10.32
2022-12-23T18:10:19.066Z,9.30
2022-12-23T18:14:27.708Z,8.68
2022-12-23T18:18:37.938Z,9.25
2022-12-23T18:22:47.419Z,9.98
2022-12-23T18:26:49.195Z,9.88
2022-12-23T18:30:53.162Z,9.40
2022-12-23T18:34:55.743Z,9.98
2022-12-23T18:38:57.631Z,11.50
2022-12-23T18:42:59.348Z,11.82
2022-12-23T18:47:00.893Z,10.13
2022-12-23T18:51:02.690Z,12.45
2022-12-23T18:55:06.421Z,11.63
2022-12-23T18:59:16.596Z,12.20
2022-12-23T19:03:27.500Z,14.38
2022-12-23T19:07:28.965Z,12.80
2022-12-23T19:11:30.957Z,12.57
2022-12-23T19:15:32.596Z,13.13
2022-12-23T19:19:34.180Z,13.98
2022-12-23T19:23:35.948Z,15.65
2022-12-23T19:27:40.438Z,16.35
2022-12-23T19:31:42.043Z,15.32
2022-12-23T19:35:44.031Z,13.40
2022-12-23T19:39:45.531Z,13.75
2022-12-23T19:43:47.333Z,14.98
2022-12-23T19:47:48.863Z,12.73
2022-12-23T19:51:50.825Z,13.18
2022-12-23T19:56:05.764Z,13.75
2022-12-23T20:00:08.888Z,11.27
2022-12-23T20:04:16.371Z,15.00
2022-12-23T20:08:17.901Z,10.85
2022-12-23T20:12:19.554Z,11.35
2022-12-23T20:16:22.004Z,12.35
2022-12-23T20:20:23.724Z,11.30
2022-12-23T20:24:25.242Z,11.63
2022-12-23T20:28:27.199Z,13.70
2022-12-23T20:32:28.650Z,15.38
2022-12-23T20:36:32.607Z,15.93
2022-12-23T20:40:34.151Z,13.45
2022-12-23T20:44:37.262Z,11.63
2022-12-23T20:48:39.150Z,12.25
2022-12-23T20:52:40.914Z,14.48
2022-12-23T20:56:42.488Z,10.70
2022-12-23T21:00:44.061Z,11.85
2022-12-23T21:04:45.772Z,13.45
2022-12-23T21:08:47.606Z,11.00
2022-12-23T21:12:49.227Z,11.45
2022-12-23T21:16:50.774Z,9.60
2022-12-23T21:20:52.528Z,9.63
2022-12-23T21:24:54.087Z,7.60
2022-12-23T21:28:59.321Z,9.55
2022-12-23T21:33:02.377Z,11.02
2022-12-23T21:37:04.202Z,9.07
2022-12-23T21:41:09.042Z,9.10
2022-12-23T21:45:11.093Z,7.68
2022-12-23T21:49:12.928Z,9.25
2022-12-23T21:53:14.713Z,8.43
2022-12-23T21:57:16.361Z,7.63
2022-12-23T22:01:20.669Z,8.57
2022-12-23T22:05:22.246Z,8.07
2022-12-23T22:09:23.813Z,9.20
2022-12-23T22:13:27.256Z,8.27
2022-12-23T22:17:28.794Z,8.38
2022-12-23T22:21:32.003Z,7.22
2022-12-23T22:25:33.756Z,6.72
2022-12-23T22:29:35.444Z,8.10
2022-12-23T22:33:37.045Z,7.85
2022-12-23T22:37:39.496Z,6.85
2022-12-23T22:41:41.111Z,8.80
2022-12-23T22:45:42.631Z,8.35
2022-12-23T22:49:44.459Z,8.88
2022-12-23T22:53:46.705Z,7.28
2022-12-23T22:57:48.327Z,6.85
2022-12-23T23:01:51.687Z,6.13
2022-12-23T23:06:02.202Z,8.07
2022-12-23T23:10:04.978Z,3.60
2022-12-23T23:14:07.106Z,4.10
2022-12-23T23:18:08.749Z,2.13
2022-12-23T23:22:10.386Z,2.53
2022-12-23T23:26:12.550Z,2.33
2022-12-23T23:30:14.200Z,2.45
2022-12-23T23:34:15.717Z,4.03
2022-12-23T23:38:17.260Z,3.70
2022-12-23T23:42:18.837Z,2.85
2022-12-23T23:46:20.491Z,4.15
2022-12-23T23:50:22.747Z,3.25
2022-12-23T23:54:24.321Z,2.35
2022-12-23T23:58:26.044Z,1.83
